West Friendship, MD (21794)

10:48 AM EST on February 10, 2016 (GMT -0500)
Hoffman Acres | | Change Station
CLOSE
Current Station
Personal Weather Station
Location: West Friendship, MD
Elevation: 545 ft
Nearby Weather Stations

Elev 545 ft 39.30 °N, 76.94 °W | Updated 5 minutes ago

Overcast
Overcast
31.6 °F
Feels Like 24 °F
N
9.4
Wind Variable Wind from WSW

Today
High -- | Low -- °F
--% Chance of Precip.
Yesterday
High -- | Low -- °F
Precip. -- in
Pressure 29.82 in
Visibility 10.0 miles
Clouds Overcast 3800 ft
Windchill 24 °F
Dew Point 31 °F
Humidity 96%
Rainfall 0.00 in
Snow Depth Not available.
7:06 AM 5:38 PM
Waxing Crescent, 6% visible
METAR KGAI 101535Z AUTO 30014G24KT 10SM OVC038 M01/M09 A2982 RMK AO1
Pressure 29.82 in
Visibility 10.0 miles
Clouds Overcast 3800 ft
Windchill 24 °F
Dew Point 31 °F
Humidity 96%
Rainfall 0.00 in
Snow Depth Not available.
7:06 AM 5:38 PM
Waxing Crescent, 6% visible
METAR KGAI 101535Z AUTO 30014G24KT 10SM OVC038 M01/M09 A2982 RMK AO1

10-Day Weather Forecast

Almanac

Astronomy

Feb. 10, 2016 Rise Set
Actual Time
Civil Twilight
Nautical Twilight
Astronomical Twilight
Moon
Length of Visible Light
Length of Day
Tomorrow will be .
, % of the Moon is Illuminated

Today's Extremes

State Highs State Lows

Community

WunderPhotos

Upload Photos

1,891,863 photos uploaded!

WunderBlog® & News

Nearby

Air Quality

  Air Quality AQ Index Pollutant
Not available.

Snow Depth

Station Depth Elevation

Earthquake Activity

City Distance Mag. Time & Date
Minimum magnitude displayed is 2.5.

Coastal Water Temperatures

Place Temperature

Stations

Nearby Weather Stations

Station Location Temp. Windchill Dew Point Humidity Wind Precip. Elev Updated Type
                   

Watches & Warnings

There are currently no watches in effect.